DG4 weather

CLOSED Hornes Gulch Airport
New Brunswick, Canada

Public forecast

Using degrees Celsius for public forecast. Weather courtesy of forecast.io.

Closest aviation weather report (METAR) to Hornes Gulch Airport

Closest report is Northern Aroostook Regional Airport, 36.8 nm (68.1 km) SSW. Retrieved 2019/10/15 19:53 UTC (1 hour ago):

KFVE 151953Z AUTO 24014KT 10SM CLR 11/M02 A2994 RMK AO2 SLP142 T01061017

Closest aviation forecast (TAF) to Hornes Gulch Airport

Closest forecast is Northern Aroostook Regional Airport, 36.8 nm (68.1 km) SSW. Retrieved 2019/10/15 18:40 UTC (2 hours ago):

TAF KFVE 151729Z 1518/1618 25007KT P6SM FEW035 FM160000 23003KT P6SM FEW090 FM161600 19005KT P6SM SCT060